Flight Track Log - Related Links

Times and Time Zones

All times are in EDT time to prevent confusion due to time zone crossing. See the N813MK flight status page for this flight to view local times or setup timezone preferences in your user account.

Time Position Orientation Groundspeed Altitude Reporting Facility
EDT Latitude Longitude Course Direction KTS MPH feet Rate Location/Type
Sun 01:32:31 PM 33.8333 -118.1833 327° Northwest 160 184 1,800  Level Southern California TRACON
Sun 01:32:52 PM 33.8447 -118.1922 327° Northwest 151 174 2,200 1,157 Climbing Los Angeles Center
Sun 01:33:54 PM 33.8536 -118.2461 281° West 163 188 3,400 1,548 Climbing Los Angeles Center
Sun 01:34:56 PM 33.8517 -118.3400 269° West 222 255 5,400 2,274 Climbing Los Angeles Center
Sun 01:35:58 PM 33.8458 -118.4300 266° West 268 308 8,100 2,903 Climbing Los Angeles Center
Sun 01:37:00 PM 33.8372 -118.5400 265° West 299 344 11,400 3,048 Climbing Los Angeles Center
Sun 01:38:02 PM 33.8272 -118.6333 263° West 317 365 14,400 2,758 Climbing Los Angeles Center
Sun 01:39:04 PM 33.8678 -118.7389 295° West 334 384 17,100 2,226 Climbing Los Angeles Center
Sun 01:40:06 PM 33.9344 -118.8394 309° West 361 415 19,000 1,887 Climbing Los Angeles Center
Sun 01:41:08 PM 34.0019 -118.9483 307° West 402 463 21,000 2,226 Climbing Los Angeles Center
Sun 01:42:10 PM 34.0714 -119.0606 307° West 414 476 23,600 2,565 Climbing Los Angeles Center
Sun 01:43:12 PM 34.1408 -119.1742 306° West 420 483 26,300 2,382 Climbing Los Angeles Center
Sun 01:44:26 PM 34.2128 -119.2886 307° West 426 490 29,000 1,620 Climbing Los Angeles Center
Sun 01:45:29 PM 34.3150 -119.4542 307° West 440 506 30,000 480 Climbing Los Angeles Center
Sun 01:46:31 PM 34.4131 -119.5503 321° Northwest 450 518 30,000  Level Los Angeles Center
Sun 01:47:33 PM 34.5136 -119.6411 323° Northwest 452 520 30,000  Level Los Angeles Center
Sun 01:48:35 PM 34.6094 -119.7319 322° Northwest 453 521 30,000  Level Los Angeles Center
Sun 01:49:37 PM 34.7103 -119.8239 323° Northwest 454 522 30,000  Level Los Angeles Center
Sun 01:50:39 PM 34.8306 -119.9364 322° Northwest 454 522 30,000  Level Los Angeles Center
Sun 01:51:41 PM 34.9311 -120.0308 322° Northwest 456 525 30,000  Level Los Angeles Center
Sun 01:52:44 PM 35.0272 -120.1203 323° Northwest 459 528 30,000  Level Los Angeles Center
Sun 01:53:46 PM 35.1272 -120.2139 323° Northwest 457 526 30,000  Level Los Angeles Center
Sun 01:54:48 PM 35.2272 -120.3081 322° Northwest 458 527 30,000  Level Los Angeles Center
Sun 01:55:50 PM 35.3478 -120.4225 322° Northwest 461 531 30,000  Level Los Angeles Center
Sun 01:56:52 PM 35.4472 -120.5206 321° Northwest 461 531 30,000  Level Los Angeles Center
Sun 01:57:54 PM 35.5481 -120.6158 322° Northwest 459 528 30,000 -48 Level Los Angeles Center
Sun 01:58:56 PM 35.6450 -120.7100 322° Northwest 458 527 29,900 -871 Descending Los Angeles Center
Sun 01:59:58 PM 35.7142 -120.8778 297° West 464 534 28,200 -2,074 Descending Los Angeles Center
Sun 02:01:12 PM 35.7683 -121.0514 291° West 458 527 25,200 -2,533 Descending Oakland Center
Sun 02:02:13 PM 35.8128 -121.1911 291° West 442 509 22,500 -2,341 Descending Oakland Center
Sun 02:03:15 PM 35.9053 -121.2742 324° Northwest 406 467 20,400 -2,032 Descending Oakland Center
Sun 02:04:17 PM 36.0100 -121.3200 341° North 394 453 18,300 -2,195 Descending Oakland Center
Sun 02:05:18 PM 36.1106 -121.3622 341° North 381 438 15,900 -2,439 Descending Oakland Center
Sun 02:06:20 PM 36.2067 -121.4011 342° North 362 417 13,300 -2,244 Descending Oakland Center
Sun 02:07:21 PM 36.3022 -121.4611 333° Northwest 315 362 11,300 -2,146 Descending Oakland Center
Sun 02:08:23 PM 36.3697 -121.5178 326° Northwest 292 336 8,900 -2,146 Descending Oakland Center
Sun 02:09:24 PM 36.4328 -121.5756 324° Northwest 281 323 6,900 -1,773 Descending Oakland Center
Sun 02:10:35 PM 36.5000 -121.6500 318° Northwest 260 299 5,000 -1,557 Descending Northern Cal TRACON
Sun 02:11:35 PM 36.5333 -121.7167 302° West 205 236 3,500 -1,600 Descending Northern Cal TRACON
Sun 02:12:35 PM 36.5667 -121.7667 310° West 191 220 1,800 -1,421 Descending Northern Cal TRACON
Sun 02:13:29 PM 36.5833 -121.8167 293° West 142 163 800 -1,111 Descending Northern Cal TRACON

Login

Don't have an account? Register now (free) for customized features, flight alerts, and more!